Time;durP1;ratioP1;P1;durP2;ratioP2;P2;SDS_P1;SDS_P2;PMS_P1;PMS_P2;Temp;Humidity;BMP_temperature;BMP_pressure;BME280_temperature;BME280_humidity;BME280_pressure;Samples;Min_cycle;Max_cycle;Signal;HPM_P1;HPM_P2
2020/12/31 00:02:29;;;;;;;10.95;7.93;;;;;;;3.04;100.00;99697.41;10259980;28;20039;-75
2020/12/31 00:07:30;;;;;;;12.63;8.98;;;;;;;3.11;100.00;99689.41;10252502;28;20043;-74
2020/12/31 00:12:31;;;;;;;15.13;10.90;;;;;;;3.15;100.00;99694.50;10276165;28;20042;-74
2020/12/31 00:17:33;;;;;;;13.95;10.73;;;;;;;3.03;100.00;99694.81;10291515;28;20455;-75
2020/12/31 00:22:34;;;;;;;13.40;9.27;;;;;;;2.70;100.00;99685.34;10251121;28;20043;-74
2020/12/31 00:27:35;;;;;;;12.82;9.38;;;;;;;2.74;100.00;99718.19;10236416;28;20464;-75
2020/12/31 00:32:36;;;;;;;11.15;8.98;;;;;;;2.76;100.00;99713.81;10253106;29;20484;-74
2020/12/31 00:37:37;;;;;;;12.82;8.75;;;;;;;2.72;100.00;99718.25;10230912;29;20377;-75
2020/12/31 00:42:39;;;;;;;13.18;9.70;;;;;;;2.77;100.00;99726.75;10238093;29;20474;-75
2020/12/31 00:47:40;;;;;;;14.60;9.35;;;;;;;2.57;100.00;99722.09;10213564;29;20447;-74
2020/12/31 00:52:42;;;;;;;15.80;10.93;;;;;;;2.49;100.00;99711.06;10200122;29;20146;-74
2020/12/31 00:57:44;;;;;;;13.98;10.52;;;;;;;2.46;100.00;99713.72;10238268;29;20099;-74
2020/12/31 01:02:47;;;;;;;15.48;10.18;;;;;;;2.41;100.00;99700.00;10253920;29;20051;-74
2020/12/31 01:07:50;;;;;;;15.02;10.93;;;;;;;2.31;100.00;99693.31;10238532;29;20054;-74
2020/12/31 01:12:51;;;;;;;14.10;10.55;;;;;;;2.40;100.00;99700.03;10237535;29;20070;-74
2020/12/31 01:17:52;;;;;;;16.27;11.15;;;;;;;2.41;100.00;99696.53;10255102;29;20483;-74
2020/12/31 01:22:53;;;;;;;15.93;12.23;;;;;;;2.42;100.00;99706.06;10253907;28;20051;-74
2020/12/31 01:27:55;;;;;;;15.32;11.25;;;;;;;2.49;100.00;99718.00;10254794;29;20047;-74
2020/12/31 01:32:57;;;;;;;14.68;11.02;;;;;;;2.58;100.00;99717.75;10254314;28;20059;-74
2020/12/31 01:37:58;;;;;;;16.23;11.32;;;;;;;2.56;100.00;99715.19;10237345;28;20528;-74
2020/12/31 01:42:59;;;;;;;13.70;9.85;;;;;;;2.83;100.00;99747.41;10255400;29;20472;-74
2020/12/31 01:48:00;;;;;;;12.23;9.45;;;;;;;2.88;100.00;99758.53;10254914;28;20134;-74
2020/12/31 01:53:02;;;;;;;11.05;8.80;;;;;;;2.93;100.00;99761.03;10253578;29;20471;-74
2020/12/31 01:58:03;;;;;;;13.18;9.05;;;;;;;2.94;100.00;99753.16;10252832;29;20054;-74
2020/12/31 02:03:04;;;;;;;11.73;9.05;;;;;;;2.96;100.00;99758.34;10254672;28;20046;-75
2020/12/31 02:08:05;;;;;;;10.80;8.88;;;;;;;2.95;100.00;99761.84;10252753;29;20066;-75
2020/12/31 02:13:06;;;;;;;13.65;9.85;;;;;;;2.84;100.00;99753.47;10252107;28;20468;-74
2020/12/31 02:18:08;;;;;;;11.60;8.77;;;;;;;2.95;100.00;99756.63;10252926;29;20047;-75
2020/12/31 02:23:09;;;;;;;12.75;8.05;;;;;;;3.12;100.00;99762.22;10252996;29;20044;-75
2020/12/31 02:28:11;;;;;;;9.77;7.18;;;;;;;3.17;100.00;99762.97;10235542;28;20050;-75
2020/12/31 02:33:12;;;;;;;12.05;8.25;;;;;;;3.17;100.00;99762.13;10253088;28;20067;-75
2020/12/31 02:38:13;;;;;;;11.35;8.20;;;;;;;3.18;100.00;99762.06;10251787;29;20051;-75
2020/12/31 02:43:14;;;;;;;13.07;7.68;;;;;;;3.20;100.00;99746.41;10252621;29;20045;-74
2020/12/31 02:48:15;;;;;;;10.18;8.30;;;;;;;3.14;100.00;99741.38;10253038;29;20094;-74
2020/12/31 02:53:16;;;;;;;10.93;8.15;;;;;;;3.06;100.00;99733.78;10252340;29;20074;-74
2020/12/31 02:58:17;;;;;;;13.00;8.85;;;;;;;3.06;100.00;99733.78;10252385;29;20404;-74
2020/12/31 03:03:18;;;;;;;10.90;7.20;;;;;;;3.12;100.00;99738.81;10273274;28;20051;-74
2020/12/31 03:08:19;;;;;;;10.82;8.10;;;;;;;3.06;100.00;99733.78;10292403;28;20035;-74
2020/12/31 03:13:23;;;;;;;13.63;7.07;;;;;;;3.09;100.00;99738.91;10259888;28;20043;-74
2020/12/31 03:18:24;;;;;;;7.80;6.80;;;;;;;3.02;100.00;99725.19;10258105;29;20047;-75
2020/12/31 03:23:25;;;;;;;9.80;5.95;;;;;;;2.90;100.00;99709.94;10259571;29;20047;-74
2020/12/31 03:28:26;;;;;;;8.60;6.07;;;;;;;2.92;100.00;99709.91;10242227;29;20051;-75
2020/12/31 03:33:28;;;;;;;11.25;8.25;;;;;;;2.95;100.00;99709.81;10258931;28;20074;-75
2020/12/31 03:38:29;;;;;;;10.82;7.95;;;;;;;2.93;100.00;99709.00;10257523;28;20036;-75
2020/12/31 03:43:30;;;;;;;11.73;8.15;;;;;;;2.93;100.00;99704.63;10259118;28;20048;-76
2020/12/31 03:48:31;;;;;;;8.40;6.60;;;;;;;2.83;100.00;99689.34;10262882;28;20505;-75
2020/12/31 03:53:32;;;;;;;7.70;6.47;;;;;;;2.90;100.00;99694.34;10274733;28;20050;-75
2020/12/31 03:58:33;;;;;;;10.05;7.10;;;;;;;2.92;100.00;99684.75;10254655;28;20051;-75
2020/12/31 04:03:34;;;;;;;8.95;7.10;;;;;;;2.87;100.00;99670.13;10283173;28;20376;-75
2020/12/31 04:08:35;;;;;;;9.52;6.22;;;;;;;2.83;100.00;99669.41;10263257;28;20051;-75
2020/12/31 04:13:37;;;;;;;8.35;6.32;;;;;;;2.85;100.00;99653.72;10264426;28;20118;-75
2020/12/31 04:18:38;;;;;;;11.38;9.02;;;;;;;2.76;100.00;99636.66;10289953;28;20408;-74
2020/12/31 04:23:39;;;;;;;12.38;8.45;;;;;;;2.65;100.00;99623.94;10257553;29;20403;-74
2020/12/31 04:28:40;;;;;;;12.52;9.70;;;;;;;2.58;100.00;99631.97;10256026;28;20047;-75
2020/12/31 04:33:41;;;;;;;13.70;10.35;;;;;;;2.60;100.00;99631.00;10256367;28;20055;-75
2020/12/31 04:38:43;;;;;;;12.23;9.50;;;;;;;2.53;100.00;99639.88;10256873;29;20039;-74
2020/12/31 04:43:44;;;;;;;10.27;8.27;;;;;;;2.61;100.00;99639.66;10255927;29;20056;-74
2020/12/31 04:48:54;;;;;;;13.15;8.55;;;;;;;2.59;100.00;99634.53;10256160;29;20480;-75
2020/12/31 04:53:57;;;;;;;12.70;9.48;;;;;;;2.60;100.00;99651.81;10214597;29;20070;-75
2020/12/31 04:58:58;;;;;;;13.18;10.18;;;;;;;2.61;100.00;99658.72;10216106;29;20044;-74
2020/12/31 05:03:59;;;;;;;14.00;9.98;;;;;;;2.50;100.00;99652.97;10217062;28;20039;-74
2020/12/31 05:09:13;;;;;;;17.95;11.48;;;;;;;2.49;100.00;99655.59;10255218;29;20057;-75
2020/12/31 05:14:34;;;;;;;12.05;9.35;;;;;;;2.45;100.00;99661.75;10254969;29;20043;-75
2020/12/31 05:19:36;;;;;;;11.45;7.88;;;;;;;2.53;100.00;99681.47;10254295;29;20046;-75
2020/12/31 05:24:45;;;;;;;9.93;7.90;;;;;;;2.60;100.00;99684.75;10255269;29;20081;-75
2020/12/31 05:30:16;;;;;;;10.63;7.57;;;;;;;2.58;100.00;99692.63;10254621;28;20043;-75
2020/12/31 05:35:17;;;;;;;4.72;3.83;;;;;;;2.59;100.00;99698.66;10237747;28;20047;-74
2020/12/31 05:40:18;;;;;;;5.72;4.05;;;;;;;2.61;100.00;99694.25;10253558;28;20054;-74
2020/12/31 05:45:26;;;;;;;6.22;4.80;;;;;;;2.51;100.00;99682.41;10255108;29;20047;-74
2020/12/31 05:50:31;;;;;;;5.57;4.05;;;;;;;2.50;100.00;99686.75;10265317;28;20069;-74
2020/12/31 05:55:32;;;;;;;5.57;4.28;;;;;;;2.52;100.00;99689.28;10293621;28;20047;-75
2020/12/31 06:00:36;;;;;;;6.53;4.70;;;;;;;2.52;100.00;99691.91;10271590;28;20046;-75
2020/12/31 06:06:02;;;;;;;5.47;3.58;;;;;;;2.46;100.00;99684.28;10236945;29;20384;-75
2020/12/31 06:11:04;;;;;;;5.45;3.58;;;;;;;2.43;100.00;99681.72;10252057;28;20047;-74
2020/12/31 06:16:05;;;;;;;4.88;3.60;;;;;;;2.40;100.00;99682.69;10254254;29;20184;-74
2020/12/31 06:21:13;;;;;;;3.70;2.65;;;;;;;2.29;100.00;99669.09;10236345;29;20047;-75
2020/12/31 06:26:30;;;;;;;5.15;3.55;;;;;;;2.33;100.00;99669.91;10235793;28;20380;-74
2020/12/31 06:31:31;;;;;;;6.75;3.90;;;;;;;2.27;100.00;99670.88;10253598;28;20503;-74
2020/12/31 06:36:35;;;;;;;5.40;3.67;;;;;;;2.27;100.00;99658.75;10254337;29;20047;-74
2020/12/31 06:41:38;;;;;;;6.82;4.55;;;;;;;2.21;100.00;99664.09;10252023;29;20046;-75
2020/12/31 06:46:42;;;;;;;8.20;5.28;;;;;;;2.18;100.00;99658.97;10253248;29;20051;-75
2020/12/31 06:51:43;;;;;;;8.27;5.80;;;;;;;2.21;100.00;99671.06;10279471;28;20043;-75
2020/12/31 06:56:51;;;;;;;6.93;4.93;;;;;;;2.18;100.00;99676.31;10299624;28;20042;-75
2020/12/31 07:01:54;;;;;;;6.55;4.30;;;;;;;2.13;100.00;99670.38;10300596;28;20046;-75
2020/12/31 07:06:57;;;;;;;5.32;3.90;;;;;;;2.12;100.00;99666.09;10301817;28;20126;-74
2020/12/31 07:12:03;;;;;;;5.22;3.83;;;;;;;2.16;100.00;99676.38;10306503;28;20049;-75
2020/12/31 07:17:06;;;;;;;5.25;3.75;;;;;;;2.18;100.00;99689.31;10275877;29;20047;-75
2020/12/31 07:22:17;;;;;;;6.15;3.53;;;;;;;2.15;100.00;99674.66;10235245;28;20043;-75
2020/12/31 07:27:26;;;;;;;5.55;3.75;;;;;;;2.15;100.00;99692.00;10214584;28;20090;-74
2020/12/31 07:32:46;;;;;;;6.85;5.47;;;;;;;2.07;100.00;99680.94;10228702;29;20448;-74
2020/12/31 07:37:56;;;;;;;9.85;6.40;;;;;;;2.08;100.00;99695.66;10241429;29;20051;-74
2020/12/31 07:42:57;;;;;;;9.80;7.38;;;;;;;2.08;100.00;99699.09;10258706;28;20120;-74
2020/12/31 07:47:59;;;;;;;10.98;7.90;;;;;;;2.02;100.00;99695.78;10251404;29;20050;-75
2020/12/31 07:53:00;;;;;;;14.00;9.25;;;;;;;2.06;100.00;99713.00;10259064;29;20476;-75
2020/12/31 07:58:03;;;;;;;10.40;7.38;;;;;;;2.03;100.00;99715.66;10259300;29;20329;-74
2020/12/31 08:03:08;;;;;;;13.38;8.73;;;;;;;2.00;100.00;99718.34;10257097;28;20050;-74
2020/12/31 08:08:09;;;;;;;12.00;8.80;;;;;;;1.91;100.00;99706.44;10258151;29;20047;-74
2020/12/31 08:13:10;;;;;;;13.05;8.48;;;;;;;1.97;100.00;99726.22;10257258;28;20380;-75
2020/12/31 08:18:12;;;;;;;12.20;8.93;;;;;;;1.93;100.00;99728.00;10240193;29;20039;-74
2020/12/31 08:23:16;;;;;;;11.68;9.18;;;;;;;1.96;100.00;99714.09;10258027;29;20047;-76
2020/12/31 08:28:20;;;;;;;10.52;8.38;;;;;;;2.03;100.00;99742.50;10257455;28;20125;-75
2020/12/31 08:33:24;;;;;;;9.52;6.82;;;;;;;2.01;100.00;99727.84;10256915;28;20051;-74
2020/12/31 08:38:25;;;;;;;12.13;8.32;;;;;;;1.99;100.00;99740.88;10257232;29;20048;-75
2020/12/31 08:43:31;;;;;;;11.95;9.25;;;;;;;2.04;100.00;99730.34;10255127;28;20039;-74
2020/12/31 08:48:34;;;;;;;12.75;9.93;;;;;;;2.06;100.00;99734.63;10256578;29;20519;-74
2020/12/31 08:53:55;;;;;;;11.48;9.07;;;;;;;2.09;100.00;99733.72;10255764;29;20050;-74
2020/12/31 08:59:10;;;;;;;15.82;11.10;;;;;;;2.16;100.00;99722.28;10255501;29;20078;-74
2020/12/31 09:04:18;;;;;;;12.00;8.65;;;;;;;2.13;100.00;99730.16;10256289;28;20042;-74
2020/12/31 09:09:23;;;;;;;15.35;10.30;;;;;;;2.15;100.00;99720.56;10255311;29;20524;-74
2020/12/31 09:14:25;;;;;;;13.32;10.20;;;;;;;2.22;100.00;99729.94;10238409;29;20050;-74
2020/12/31 09:19:27;;;;;;;14.05;10.98;;;;;;;2.23;100.00;99722.09;10230897;28;20044;-75
2020/12/31 09:24:34;;;;;;;15.90;10.90;;;;;;;2.21;100.00;99716.06;10255354;28;20452;-75
2020/12/31 09:29:36;;;;;;;15.55;11.30;;;;;;;2.31;100.00;99723.66;10237692;29;20046;-76
2020/12/31 09:34:37;;;;;;;13.07;10.00;;;;;;;2.32;100.00;99722.75;10236522;29;20069;-76
2020/12/31 09:39:38;;;;;;;13.55;10.60;;;;;;;2.28;100.00;99720.22;10218163;28;20039;-73
2020/12/31 09:44:39;;;;;;;15.10;9.90;;;;;;;2.38;100.00;99720.00;10218090;29;20051;-75
2020/12/31 09:49:40;;;;;;;14.57;8.93;;;;;;;2.41;100.00;99717.34;10254806;29;20050;-73
2020/12/31 09:54:41;;;;;;;13.63;9.98;;;;;;;2.32;100.00;99707.16;10254059;28;20246;-74
2020/12/31 09:59:43;;;;;;;13.82;9.35;;;;;;;2.20;100.00;99692.72;10253518;29;20043;-74
2020/12/31 10:04:44;;;;;;;15.57;9.40;;;;;;;2.16;100.00;99686.78;10252465;29;20066;-73
2020/12/31 10:09:45;;;;;;;15.05;10.60;;;;;;;2.21;100.00;99691.84;10253549;29;20476;-73
2020/12/31 10:14:46;;;;;;;13.77;10.38;;;;;;;2.23;100.00;99703.06;10252669;28;20054;-73
2020/12/31 10:19:47;;;;;;;16.45;10.70;;;;;;;2.20;100.00;99696.19;10253330;29;20050;-76
2020/12/31 10:24:49;;;;;;;19.40;12.18;;;;;;;2.23;100.00;99680.53;10236509;28;20057;-75
2020/12/31 10:29:50;;;;;;;14.15;10.75;;;;;;;2.24;100.00;99694.38;10258531;28;20047;-73
2020/12/31 10:34:51;;;;;;;14.75;10.13;;;;;;;2.04;100.00;99675.81;10270452;28;20051;-74
2020/12/31 10:39:52;;;;;;;10.30;8.07;;;;;;;2.05;100.00;99682.72;10233523;29;20051;-75
2020/12/31 10:44:54;;;;;;;10.70;8.27;;;;;;;1.98;100.00;99673.38;10207484;29;20114;-74
2020/12/31 10:49:55;;;;;;;10.98;8.20;;;;;;;2.03;100.00;99680.16;10260213;29;20369;-74
2020/12/31 10:54:56;;;;;;;12.27;9.35;;;;;;;2.20;100.00;99680.59;10260669;29;20054;-75
2020/12/31 10:59:57;;;;;;;7.20;6.10;;;;;;;2.01;100.00;99668.94;10259922;29;20668;-74
2020/12/31 11:04:58;;;;;;;8.63;6.15;;;;;;;2.09;100.00;99672.19;10260923;29;20074;-74
2020/12/31 11:09:59;;;;;;;10.02;7.07;;;;;;;2.01;100.00;99658.56;10259896;29;20047;-74
2020/12/31 11:15:00;;;;;;;16.13;10.77;;;;;;;1.89;100.00;99645.88;10261052;29;20531;-75
2020/12/31 11:20:02;;;;;;;14.02;9.80;;;;;;;1.83;100.00;99653.81;10250175;28;20047;-74
2020/12/31 11:25:03;;;;;;;15.27;11.10;;;;;;;1.66;100.00;99658.56;10229594;29;20044;-73
2020/12/31 11:30:06;;;;;;;16.02;11.25;;;;;;;1.70;100.00;99660.19;10258623;28;20051;-73
2020/12/31 11:35:07;;;;;;;16.35;10.73;;;;;;;1.72;100.00;99659.28;10255223;28;20105;-73
2020/12/31 11:40:08;;;;;;;14.38;11.02;;;;;;;1.67;100.00;99653.34;10250035;29;20051;-72
2020/12/31 11:45:10;;;;;;;13.68;10.15;;;;;;;1.67;100.00;99661.13;10256805;28;20059;-73
2020/12/31 11:50:11;;;;;;;12.07;9.13;;;;;;;1.57;100.00;99659.63;10256650;29;20051;-73
2020/12/31 11:55:12;;;;;;;13.27;9.80;;;;;;;1.54;100.00;99659.69;10256167;29;20047;-73
2020/12/31 12:00:14;;;;;;;9.30;7.22;;;;;;;1.47;100.00;99652.94;10257047;29;20051;-72
2020/12/31 12:05:15;;;;;;;14.35;10.52;;;;;;;1.49;100.00;99652.03;10258073;29;20468;-72
2020/12/31 12:10:16;;;;;;;13.25;8.60;;;;;;;1.60;100.00;99661.28;10257176;28;20503;-72
2020/12/31 12:15:19;;;;;;;11.77;8.52;;;;;;;1.59;100.00;99654.41;10238604;29;20440;-73
2020/12/31 12:20:20;;;;;;;11.10;8.10;;;;;;;1.67;100.00;99665.47;10256169;29;20119;-73
2020/12/31 12:25:21;;;;;;;10.25;7.95;;;;;;;1.71;100.00;99664.50;10254755;28;20043;-73
2020/12/31 12:30:22;;;;;;;11.55;8.75;;;;;;;1.79;100.00;99672.97;10255306;29;20043;-73
2020/12/31 12:35:23;;;;;;;12.32;9.00;;;;;;;1.76;100.00;99667.81;10237567;28;20051;-74
2020/12/31 12:40:24;;;;;;;13.38;10.18;;;;;;;1.84;100.00;99669.34;10193539;29;20052;-73
2020/12/31 12:45:26;;;;;;;9.07;7.82;;;;;;;1.92;100.00;99670.94;10250001;29;20040;-73
2020/12/31 12:50:27;;;;;;;11.77;9.73;;;;;;;1.95;100.00;99670.84;10231796;28;20043;-73
2020/12/31 12:55:28;;;;;;;12.25;10.43;;;;;;;1.97;100.00;99669.91;10247034;28;20102;-75
2020/12/31 13:00:29;;;;;;;10.35;8.50;;;;;;;1.97;100.00;99669.91;10226167;28;20485;-75
2020/12/31 13:05:30;;;;;;;11.60;9.70;;;;;;;1.97;100.00;99667.31;10221085;29;20043;-74
2020/12/31 13:10:31;;;;;;;11.77;9.70;;;;;;;2.11;100.00;99678.22;10250763;29;20497;-75
2020/12/31 13:15:33;;;;;;;12.63;10.55;;;;;;;1.96;100.00;99655.22;10251452;28;20047;-75
2020/12/31 13:20:35;;;;;;;13.43;11.15;;;;;;;2.15;100.00;99672.06;10253976;29;20047;-74
2020/12/31 13:25:39;;;;;;;11.90;9.63;;;;;;;2.29;100.00;99682.09;10254543;28;20031;-74
2020/12/31 13:30:41;;;;;;;14.23;10.93;;;;;;;2.43;100.00;99686.94;10237472;29;20058;-74
2020/12/31 13:35:44;;;;;;;11.02;9.25;;;;;;;2.40;100.00;99669.69;10249939;28;20775;-75
2020/12/31 13:40:45;;;;;;;13.45;9.82;;;;;;;2.55;100.00;99679.69;10241862;29;20492;-74
2020/12/31 13:45:47;;;;;;;11.02;8.95;;;;;;;2.46;100.00;99668.66;10253029;29;20043;-73
2020/12/31 13:50:48;;;;;;;8.85;7.03;;;;;;;2.36;100.00;99660.25;10238624;29;20063;-74
2020/12/31 13:55:49;;;;;;;9.13;7.63;;;;;;;2.31;100.00;99661.28;10254068;29;20043;-73
2020/12/31 14:00:51;;;;;;;7.72;6.68;;;;;;;2.17;100.00;99651.25;10236570;28;20385;-74
2020/12/31 14:05:53;;;;;;;8.85;6.88;;;;;;;2.01;100.00;99647.34;10253907;29;20047;-73
2020/12/31 14:10:54;;;;;;;8.40;6.70;;;;;;;2.00;100.00;99646.47;10253109;28;20512;-74
2020/12/31 14:15:56;;;;;;;11.80;10.25;;;;;;;2.24;100.00;99656.25;10253609;29;20043;-73
2020/12/31 14:20:58;;;;;;;14.20;12.50;;;;;;;2.32;100.00;99661.25;10252662;29;20046;-74
2020/12/31 14:25:59;;;;;;;7.22;6.22;;;;;;;2.31;100.00;99649.13;10253060;28;20043;-74
2020/12/31 14:31:00;;;;;;;8.45;6.10;;;;;;;2.38;100.00;99653.28;10253013;29;20068;-73
2020/12/31 14:36:02;;;;;;;7.40;6.05;;;;;;;2.41;100.00;99661.00;10248936;28;20716;-74
2020/12/31 14:41:03;;;;;;;7.38;6.15;;;;;;;2.49;100.00;99666.84;10246518;29;20581;-74
2020/12/31 14:46:04;;;;;;;7.70;6.05;;;;;;;2.52;100.00;99655.50;10244191;29;20051;-74
2020/12/31 14:51:06;;;;;;;6.38;5.18;;;;;;;2.58;100.00;99658.81;10235799;29;20051;-74
2020/12/31 14:56:07;;;;;;;9.38;6.82;;;;;;;2.48;100.00;99657.34;10251354;29;20043;-74
2020/12/31 15:01:08;;;;;;;9.55;7.43;;;;;;;2.49;100.00;99661.66;10213328;29;20051;-74
2020/12/31 15:06:09;;;;;;;8.07;6.20;;;;;;;2.46;100.00;99651.34;10210416;29;20089;-74
2020/12/31 15:11:12;;;;;;;7.90;6.55;;;;;;;2.43;100.00;99659.19;10231484;29;20548;-74
2020/12/31 15:16:13;;;;;;;7.70;6.57;;;;;;;2.41;100.00;99658.41;10232780;28;20047;-74
2020/12/31 15:21:14;;;;;;;9.05;6.50;;;;;;;2.36;100.00;99660.25;10257903;29;20035;-74
2020/12/31 15:26:15;;;;;;;10.43;7.22;;;;;;;2.39;100.00;99673.19;10253810;28;20048;-74
2020/12/31 15:31:17;;;;;;;9.00;7.63;;;;;;;2.39;100.00;99680.13;10237395;28;20047;-74
2020/12/31 15:36:23;;;;;;;9.45;7.68;;;;;;;2.44;100.00;99681.69;10257259;28;20056;-74
2020/12/31 15:41:24;;;;;;;10.60;6.78;;;;;;;2.47;100.00;99693.78;10258246;29;20047;-74
2020/12/31 15:46:26;;;;;;;8.15;6.45;;;;;;;2.46;100.00;99698.13;10257972;29;20046;-76
2020/12/31 15:51:33;;;;;;;7.78;6.10;;;;;;;2.38;100.00;99697.47;10257502;28;20102;-76
2020/12/31 15:56:39;;;;;;;7.65;6.75;;;;;;;2.42;100.00;99701.72;10245265;29;20093;-76
2020/12/31 16:01:40;;;;;;;9.10;8.13;;;;;;;2.44;100.00;99710.28;10257048;29;20054;-76
2020/12/31 16:06:42;;;;;;;7.22;6.13;;;;;;;2.40;100.00;99713.03;10243550;28;20071;-76
2020/12/31 16:11:43;;;;;;;9.48;8.25;;;;;;;2.23;100.00;99703.91;10217609;29;20051;-75
2020/12/31 16:16:51;;;;;;;10.70;8.20;;;;;;;2.34;100.00;99710.59;10217195;29;20063;-75
2020/12/31 16:21:52;;;;;;;8.70;7.13;;;;;;;2.29;100.00;99713.28;10216187;29;20394;-76
2020/12/31 16:26:53;;;;;;;9.63;7.20;;;;;;;2.43;100.00;99726.78;10250689;28;20051;-76
2020/12/31 16:32:11;;;;;;;9.18;7.50;;;;;;;2.32;100.00;99727.97;10255909;29;20059;-76
2020/12/31 16:37:14;;;;;;;9.35;8.18;;;;;;;2.36;100.00;99737.38;10235517;29;20046;-76
2020/12/31 16:42:20;;;;;;;9.95;8.93;;;;;;;2.40;100.00;99742.47;10237791;28;20098;-76
2020/12/31 16:47:25;;;;;;;9.48;8.48;;;;;;;2.73;100.00;99758.09;10251863;29;20381;-75
2020/12/31 16:52:26;;;;;;;13.02;10.07;;;;;;;2.46;100.00;99739.72;10253579;29;20047;-76
2020/12/31 16:57:28;;;;;;;11.48;10.25;;;;;;;2.38;100.00;99738.19;10254664;29;20070;-76
2020/12/31 17:02:30;;;;;;;10.73;9.48;;;;;;;2.50;100.00;99754.34;10253654;29;20170;-76
2020/12/31 17:07:31;;;;;;;8.52;7.57;;;;;;;2.55;100.00;99762.03;10253771;29;20044;-76
2020/12/31 17:12:32;;;;;;;10.32;8.82;;;;;;;2.46;100.00;99757.06;10253408;29;20456;-76
2020/12/31 17:17:33;;;;;;;12.68;10.20;;;;;;;2.50;100.00;99769.94;10235263;29;20066;-78
2020/12/31 17:22:34;;;;;;;9.23;8.32;;;;;;;2.44;100.00;99764.03;10253842;29;20523;-76
2020/12/31 17:27:35;;;;;;;8.73;7.63;;;;;;;2.41;100.00;99759.78;10236986;28;20047;-76
2020/12/31 17:32:37;;;;;;;16.17;11.20;;;;;;;2.44;100.00;99759.69;10253414;28;20387;-76
2020/12/31 17:37:38;;;;;;;34.75;20.13;;;;;;;2.48;100.00;99770.88;10213238;29;20039;-75
2020/12/31 17:42:39;;;;;;;25.75;16.13;;;;;;;2.46;100.00;99776.09;10253450;29;20054;-76
2020/12/31 17:47:40;;;;;;;17.42;13.85;;;;;;;2.33;100.00;99764.31;10253409;28;20047;-75
2020/12/31 17:52:41;;;;;;;12.32;10.73;;;;;;;2.38;100.00;99780.63;10227569;29;20047;-76
2020/12/31 17:57:44;;;;;;;12.63;10.05;;;;;;;2.38;100.00;99788.44;10227610;29;20229;-75
2020/12/31 18:02:45;;;;;;;12.13;10.82;;;;;;;2.48;100.00;99789.91;10230580;29;20039;-76
2020/12/31 18:07:46;;;;;;;14.68;12.23;;;;;;;2.46;100.00;99793.44;10244197;28;20051;-76
2020/12/31 18:12:47;;;;;;;14.30;12.63;;;;;;;2.44;100.00;99790.88;10236598;29;20043;-76
2020/12/31 18:17:48;;;;;;;13.70;11.80;;;;;;;2.43;100.00;99788.31;10253650;29;20051;-75
2020/12/31 18:22:50;;;;;;;13.02;11.55;;;;;;;2.43;100.00;99791.75;10252532;29;20035;-75
2020/12/31 18:27:51;;;;;;;14.90;12.63;;;;;;;2.34;100.00;99775.56;10253132;29;20487;-75
2020/12/31 18:32:52;;;;;;;12.55;11.20;;;;;;;2.43;100.00;99793.50;10252524;28;20055;-76
2020/12/31 18:37:53;;;;;;;12.52;10.73;;;;;;;2.33;100.00;99785.09;10252687;29;20051;-75
2020/12/31 18:42:54;;;;;;;13.63;12.23;;;;;;;2.40;100.00;99796.19;10245179;28;20039;-75
2020/12/31 18:47:56;;;;;;;13.57;11.43;;;;;;;2.45;100.00;99797.78;10242955;28;20385;-75
2020/12/31 18:52:57;;;;;;;13.35;11.55;;;;;;;2.40;100.00;99802.25;10260487;28;20377;-76
2020/12/31 18:57:58;;;;;;;13.02;11.60;;;;;;;2.38;100.00;99793.63;10255000;29;20431;-75
2020/12/31 19:02:59;;;;;;;13.38;11.77;;;;;;;2.36;100.00;99798.00;10223464;29;20047;-75
2020/12/31 19:08:00;;;;;;;19.05;16.23;;;;;;;2.33;100.00;99803.28;10220167;29;20044;-76
2020/12/31 19:13:02;;;;;;;19.05;15.48;;;;;;;2.30;100.00;99808.56;10217036;29;20395;-76
2020/12/31 19:18:03;;;;;;;15.50;12.98;;;;;;;2.32;100.00;99824.13;10249025;28;20055;-75
2020/12/31 19:23:04;;;;;;;16.15;13.82;;;;;;;2.16;100.00;99814.09;10257860;29;20043;-76
2020/12/31 19:28:06;;;;;;;15.98;13.52;;;;;;;2.22;100.00;99834.72;10265109;28;20047;-77
2020/12/31 19:33:08;;;;;;;13.85;12.13;;;;;;;2.24;100.00;99839.88;10259228;28;20070;-75
2020/12/31 19:38:10;;;;;;;16.38;13.55;;;;;;;2.28;100.00;99844.97;10246132;28;20126;-75
2020/12/31 19:43:11;;;;;;;18.70;14.63;;;;;;;2.34;100.00;99854.38;10259945;29;20043;-75
2020/12/31 19:48:12;;;;;;;17.20;14.55;;;;;;;2.44;100.00;99861.06;10258487;29;20058;-76
2020/12/31 19:53:13;;;;;;;17.58;14.00;;;;;;;2.51;100.00;99867.00;10254315;29;20496;-77
2020/12/31 19:58:14;;;;;;;21.58;17.00;;;;;;;2.48;100.00;99867.06;10239931;28;20043;-75
2020/12/31 20:03:16;;;;;;;17.75;15.27;;;;;;;2.54;100.00;99872.97;10257772;29;20067;-76
2020/12/31 20:08:17;;;;;;;18.75;15.15;;;;;;;2.46;100.00;99876.63;10240113;29;20046;-76
2020/12/31 20:13:18;;;;;;;16.33;14.48;;;;;;;2.51;100.00;99882.59;10256990;29;20051;-76
2020/12/31 20:18:19;;;;;;;19.15;16.02;;;;;;;2.56;100.00;99885.94;10256666;29;20047;-76
2020/12/31 20:23:21;;;;;;;18.35;16.35;;;;;;;2.61;100.00;99895.31;10257002;29;20119;-75
2020/12/31 20:28:22;;;;;;;19.42;16.65;;;;;;;3.12;100.00;99917.50;10255911;28;20043;-76
2020/12/31 20:33:23;;;;;;;24.70;16.85;;;;;;;2.75;100.00;99887.22;10239399;29;20058;-76
2020/12/31 20:38:26;;;;;;;23.80;19.25;;;;;;;2.56;100.00;99894.59;10238388;29;20130;-76
2020/12/31 20:43:27;;;;;;;21.13;17.60;;;;;;;2.46;100.00;99887.03;10229006;29;20441;-76
2020/12/31 20:48:28;;;;;;;23.08;19.08;;;;;;;2.32;100.00;99878.69;10216153;29;20082;-76
2020/12/31 20:53:30;;;;;;;21.52;17.35;;;;;;;2.30;100.00;99891.72;10216586;29;20052;-75
2020/12/31 20:58:31;;;;;;;19.98;16.75;;;;;;;2.28;100.00;99891.75;10198710;29;20047;-75
2020/12/31 21:03:32;;;;;;;21.80;17.45;;;;;;;2.13;100.00;99878.22;10216037;29;20469;-75
2020/12/31 21:08:33;;;;;;;19.77;16.73;;;;;;;2.08;100.00;99870.56;10215773;29;20508;-75
2020/12/31 21:13:35;;;;;;;18.02;15.80;;;;;;;2.03;100.00;99897.50;10230899;29;20055;-76
2020/12/31 21:18:36;;;;;;;18.52;15.73;;;;;;;2.10;100.00;99904.25;10251052;29;20046;-77
2020/12/31 21:23:44;;;;;;;17.88;15.35;;;;;;;2.35;100.00;99914.97;10238247;29;20054;-76
2020/12/31 21:28:47;;;;;;;18.73;15.70;;;;;;;2.20;100.00;99911.84;10254532;29;20039;-76
2020/12/31 21:33:48;;;;;;;19.25;15.32;;;;;;;2.08;100.00;99911.25;10254305;28;20134;-76
2020/12/31 21:38:50;;;;;;;17.80;14.88;;;;;;;2.06;100.00;99911.28;10237505;29;20039;-75
2020/12/31 21:43:55;;;;;;;20.77;16.48;;;;;;;2.33;100.00;99919.38;10244901;29;20047;-76
2020/12/31 21:48:58;;;;;;;20.42;17.00;;;;;;;2.48;100.00;99922.50;10224492;29;20055;-77
2020/12/31 21:53:59;;;;;;;19.77;16.08;;;;;;;2.48;100.00;99919.91;10236255;29;20047;-75
2020/12/31 21:59:00;;;;;;;19.27;15.35;;;;;;;2.49;100.00;99923.34;10236554;29;20043;-75
2020/12/31 22:04:06;;;;;;;20.60;16.35;;;;;;;2.57;100.00;99927.50;10253160;28;20394;-77
2020/12/31 22:09:07;;;;;;;23.60;17.38;;;;;;;2.57;100.00;99924.03;10252686;29;20079;-75
2020/12/31 22:14:10;;;;;;;21.67;17.45;;;;;;;2.63;100.00;99934.28;10231277;29;20111;-76
2020/12/31 22:19:12;;;;;;;22.88;17.70;;;;;;;2.49;100.00;99920.75;10246030;28;20624;-75
2020/12/31 22:24:13;;;;;;;26.10;20.55;;;;;;;2.45;100.00;99930.34;10260845;29;20059;-75
2020/12/31 22:29:14;;;;;;;25.35;20.15;;;;;;;2.37;100.00;99921.88;10276306;28;20106;-75
2020/12/31 22:34:15;;;;;;;24.30;19.60;;;;;;;2.40;100.00;99933.94;10257901;29;20051;-75
2020/12/31 22:39:16;;;;;;;23.70;18.80;;;;;;;2.42;100.00;99924.38;10253373;28;20090;-75
2020/12/31 22:44:18;;;;;;;24.50;20.73;;;;;;;2.29;100.00;99914.25;10261125;29;20062;-75
2020/12/31 22:49:19;;;;;;;28.25;20.98;;;;;;;2.27;100.00;99929.00;10252809;29;20044;-76
2020/12/31 22:54:20;;;;;;;25.25;19.98;;;;;;;2.29;100.00;99919.44;10260317;29;20411;-76
2020/12/31 22:59:21;;;;;;;28.45;22.00;;;;;;;2.33;100.00;99922.84;10232198;29;20473;-76
2020/12/31 23:04:23;;;;;;;32.08;25.42;;;;;;;2.47;100.00;99931.19;10243495;29;20508;-75
2020/12/31 23:09:24;;;;;;;64.68;51.33;;;;;;;2.53;100.00;99933.63;10245716;28;20050;-76